sensor_id;sensor_type;location;lat;lon;timestamp;pressure;altitude;pressure_sealevel;temperature;humidity
18918;BME280;9591;52.742;13.650;2023-04-15T00:01:28;100078.81;;;11.86;100.00
18918;BME280;9591;52.742;13.650;2023-04-15T00:04:21;100096.38;;;11.88;100.00
18918;BME280;9591;52.742;13.650;2023-04-15T00:07:13;100099.53;;;11.77;100.00
18918;BME280;9591;52.742;13.650;2023-04-15T00:10:04;100096.81;;;11.79;100.00
18918;BME280;9591;52.742;13.650;2023-04-15T00:13:01;100097.66;;;11.98;100.00
18918;BME280;9591;52.742;13.650;2023-04-15T00:16:06;100100.75;;;11.89;100.00
18918;BME280;9591;52.742;13.650;2023-04-15T00:19:12;100097.28;;;12.06;100.00
18918;BME280;9591;52.742;13.650;2023-04-15T00:22:11;100090.78;;;11.94;100.00
18918;BME280;9591;52.742;13.650;2023-04-15T00:25:06;100097.06;;;12.10;100.00
18918;BME280;9591;52.742;13.650;2023-04-15T00:28:02;100088.09;;;12.13;100.00
18918;BME280;9591;52.742;13.650;2023-04-15T00:30:55;100092.44;;;12.14;100.00
18918;BME280;9591;52.742;13.650;2023-04-15T00:33:49;100086.38;;;12.12;100.00
18918;BME280;9591;52.742;13.650;2023-04-15T00:36:43;100086.44;;;12.10;100.00
18918;BME280;9591;52.742;13.650;2023-04-15T00:39:40;100090.13;;;12.08;100.00
18918;BME280;9591;52.742;13.650;2023-04-15T00:42:46;100088.38;;;12.07;100.00
18918;BME280;9591;52.742;13.650;2023-04-15T00:45:45;100090.03;;;12.09;100.00
18918;BME280;9591;52.742;13.650;2023-04-15T00:48:40;100090.19;;;12.06;100.00
18918;BME280;9591;52.742;13.650;2023-04-15T00:51:35;100082.06;;;12.09;100.00
18918;BME280;9591;52.742;13.650;2023-04-15T00:54:30;100085.75;;;12.07;100.00
18918;BME280;9591;52.742;13.650;2023-04-15T00:57:24;100086.03;;;12.01;100.00
18918;BME280;9591;52.742;13.650;2023-04-15T01:00:26;100081.94;;;11.94;100.00
18918;BME280;9591;52.742;13.650;2023-04-15T01:03:26;100081.88;;;11.95;100.00
18918;BME280;9591;52.742;13.650;2023-04-15T01:06:24;100072.19;;;11.94;100.00
18918;BME280;9591;52.742;13.650;2023-04-15T01:09:19;100080.88;;;11.98;100.00
18918;BME280;9591;52.742;13.650;2023-04-15T01:12:13;100075.91;;;12.09;100.00
18918;BME280;9591;52.742;13.650;2023-04-15T01:15:07;100069.25;;;12.00;100.00
18918;BME280;9591;52.742;13.650;2023-04-15T01:18:03;100076.84;;;12.08;100.00
18918;BME280;9591;52.742;13.650;2023-04-15T01:21:00;100077.94;;;12.04;100.00
18918;BME280;9591;52.742;13.650;2023-04-15T01:23:58;100073.25;;;12.09;100.00
18918;BME280;9591;52.742;13.650;2023-04-15T01:27:05;100074.25;;;12.06;100.00
18918;BME280;9591;52.742;13.650;2023-04-15T01:30:01;100083.38;;;12.01;100.00
18918;BME280;9591;52.742;13.650;2023-04-15T01:33:02;100056.00;;;11.81;100.00
18918;BME280;9591;52.742;13.650;2023-04-15T01:35:52;100074.94;;;11.93;100.00
18918;BME280;9591;52.742;13.650;2023-04-15T01:38:56;100071.56;;;11.89;100.00
18918;BME280;9591;52.742;13.650;2023-04-15T01:41:47;100072.13;;;11.96;100.00
18918;BME280;9591;52.742;13.650;2023-04-15T01:44:48;100069.97;;;12.04;100.00
18918;BME280;9591;52.742;13.650;2023-04-15T01:47:40;100065.59;;;12.03;100.00
18918;BME280;9591;52.742;13.650;2023-04-15T01:50:34;100072.75;;;12.01;100.00
18918;BME280;9591;52.742;13.650;2023-04-15T01:53:26;100059.72;;;11.96;100.00
18918;BME280;9591;52.742;13.650;2023-04-15T01:56:23;100057.00;;;11.98;100.00
18918;BME280;9591;52.742;13.650;2023-04-15T01:59:20;100049.47;;;11.89;100.00
18918;BME280;9591;52.742;13.650;2023-04-15T02:02:21;100057.91;;;11.97;100.00
18918;BME280;9591;52.742;13.650;2023-04-15T02:05:19;100060.91;;;12.08;100.00
18918;BME280;9591;52.742;13.650;2023-04-15T02:08:15;100064.34;;;12.10;100.00
18918;BME280;9591;52.742;13.650;2023-04-15T02:11:07;100063.50;;;12.09;100.00
18918;BME280;9591;52.742;13.650;2023-04-15T02:13:59;100065.09;;;11.95;100.00
18918;BME280;9591;52.742;13.650;2023-04-15T02:17:03;100066.22;;;12.08;100.00
18918;BME280;9591;52.742;13.650;2023-04-15T02:19:59;100069.59;;;12.11;100.00
18918;BME280;9591;52.742;13.650;2023-04-15T02:22:54;100066.22;;;12.08;100.00
18918;BME280;9591;52.742;13.650;2023-04-15T02:25:41;100069.63;;;11.93;100.00
18918;BME280;9591;52.742;13.650;2023-04-15T02:28:38;100070.84;;;11.86;100.00
18918;BME280;9591;52.742;13.650;2023-04-15T02:31:25;100062.88;;;11.86;100.00
18918;BME280;9591;52.742;13.650;2023-04-15T02:34:12;100059.16;;;11.90;100.00
18918;BME280;9591;52.742;13.650;2023-04-15T02:37:03;100060.72;;;11.94;100.00
18918;BME280;9591;52.742;13.650;2023-04-15T02:39:53;100061.38;;;11.99;100.00
18918;BME280;9591;52.742;13.650;2023-04-15T02:42:40;100055.56;;;11.91;100.00
18918;BME280;9591;52.742;13.650;2023-04-15T02:45:30;100062.38;;;11.96;100.00
18918;BME280;9591;52.742;13.650;2023-04-15T02:48:19;100064.16;;;11.96;100.00
18918;BME280;9591;52.742;13.650;2023-04-15T02:54:01;100059.56;;;11.99;100.00
18918;BME280;9591;52.742;13.650;2023-04-15T02:56:48;100065.81;;;11.98;100.00
18918;BME280;9591;52.742;13.650;2023-04-15T02:59:34;100073.69;;;12.00;100.00
18918;BME280;9591;52.742;13.650;2023-04-15T03:02:21;100056.50;;;11.90;100.00
18918;BME280;9591;52.742;13.650;2023-04-15T03:05:11;100073.56;;;12.03;100.00
18918;BME280;9591;52.742;13.650;2023-04-15T03:08:04;100069.88;;;12.05;100.00
18918;BME280;9591;52.742;13.650;2023-04-15T03:10:53;100006.59;;;11.60;100.00
18918;BME280;9591;52.742;13.650;2023-04-15T03:13:39;100074.81;;;12.30;100.00
18918;BME280;9591;52.742;13.650;2023-04-15T03:16:38;100065.75;;;12.17;100.00
18918;BME280;9591;52.742;13.650;2023-04-15T03:19:25;100065.91;;;12.14;100.00
18918;BME280;9591;52.742;13.650;2023-04-15T03:22:12;100070.03;;;12.20;100.00
18918;BME280;9591;52.742;13.650;2023-04-15T03:24:59;100072.47;;;12.07;100.00
18918;BME280;9591;52.742;13.650;2023-04-15T03:27:47;100066.88;;;12.13;100.00
18918;BME280;9591;52.742;13.650;2023-04-15T03:30:35;100077.38;;;12.14;100.00
18918;BME280;9591;52.742;13.650;2023-04-15T03:33:21;100069.09;;;12.21;100.00
18918;BME280;9591;52.742;13.650;2023-04-15T03:36:08;100072.47;;;12.24;100.00
18918;BME280;9591;52.742;13.650;2023-04-15T03:38:55;100077.63;;;12.27;100.00
18918;BME280;9591;52.742;13.650;2023-04-15T03:41:42;100078.41;;;12.29;100.00
18918;BME280;9591;52.742;13.650;2023-04-15T03:44:30;100074.66;;;12.33;100.00
18918;BME280;9591;52.742;13.650;2023-04-15T03:47:16;100070.00;;;12.38;100.00
18918;BME280;9591;52.742;13.650;2023-04-15T03:50:04;100074.19;;;12.25;100.00
18918;BME280;9591;52.742;13.650;2023-04-15T03:52:51;100067.56;;;12.34;100.00
18918;BME280;9591;52.742;13.650;2023-04-15T03:55:38;100077.56;;;12.29;100.00
18918;BME280;9591;52.742;13.650;2023-04-15T03:58:25;100084.41;;;12.15;100.00
18918;BME280;9591;52.742;13.650;2023-04-15T04:01:13;100067.94;;;12.09;100.00
18918;BME280;9591;52.742;13.650;2023-04-15T04:04:01;100075.91;;;12.26;100.00
18918;BME280;9591;52.742;13.650;2023-04-15T04:06:47;100071.56;;;12.42;100.00
18918;BME280;9591;52.742;13.650;2023-04-15T04:09:34;100075.88;;;12.45;100.00
18918;BME280;9591;52.742;13.650;2023-04-15T04:12:23;100076.72;;;12.45;100.00
18918;BME280;9591;52.742;13.650;2023-04-15T04:15:10;100084.31;;;12.53;100.00
18918;BME280;9591;52.742;13.650;2023-04-15T04:17:58;100084.13;;;12.39;100.00
18918;BME280;9591;52.742;13.650;2023-04-15T04:20:45;100083.94;;;12.25;100.00
18918;BME280;9591;52.742;13.650;2023-04-15T04:23:32;100087.94;;;12.33;100.00
18918;BME280;9591;52.742;13.650;2023-04-15T04:26:19;100082.94;;;12.10;100.00
18918;BME280;9591;52.742;13.650;2023-04-15T04:29:05;100091.56;;;12.13;100.00
18918;BME280;9591;52.742;13.650;2023-04-15T04:31:52;100086.13;;;12.17;100.00
18918;BME280;9591;52.742;13.650;2023-04-15T04:34:40;100089.53;;;12.37;100.00
18918;BME280;9591;52.742;13.650;2023-04-15T04:37:27;100085.94;;;12.38;100.00
18918;BME280;9591;52.742;13.650;2023-04-15T04:40:14;100092.31;;;12.34;100.00
18918;BME280;9591;52.742;13.650;2023-04-15T04:43:01;100091.63;;;12.31;100.00
18918;BME280;9591;52.742;13.650;2023-04-15T04:45:48;100096.94;;;12.31;100.00
18918;BME280;9591;52.742;13.650;2023-04-15T04:48:35;100096.78;;;11.98;100.00
18918;BME280;9591;52.742;13.650;2023-04-15T04:51:23;100096.66;;;12.18;100.00
18918;BME280;9591;52.742;13.650;2023-04-15T04:54:10;100107.13;;;12.04;100.00
18918;BME280;9591;52.742;13.650;2023-04-15T04:56:57;100096.41;;;12.41;100.00
18918;BME280;9591;52.742;13.650;2023-04-15T04:59:43;100108.44;;;12.48;100.00
18918;BME280;9591;52.742;13.650;2023-04-15T05:02:30;100106.34;;;12.19;100.00
18918;BME280;9591;52.742;13.650;2023-04-15T05:05:17;100108.28;;;12.52;100.00
18918;BME280;9591;52.742;13.650;2023-04-15T05:08:06;100113.06;;;12.26;100.00
18918;BME280;9591;52.742;13.650;2023-04-15T05:10:53;100117.34;;;12.47;100.00
18918;BME280;9591;52.742;13.650;2023-04-15T05:13:40;100115.00;;;12.41;100.00
18918;BME280;9591;52.742;13.650;2023-04-15T05:16:26;100115.78;;;12.61;100.00
18918;BME280;9591;52.742;13.650;2023-04-15T05:19:13;100113.91;;;12.63;100.00
18918;BME280;9591;52.742;13.650;2023-04-15T05:22:00;100117.25;;;12.49;100.00
18918;BME280;9591;52.742;13.650;2023-04-15T05:24:48;100117.06;;;12.71;100.00
18918;BME280;9591;52.742;13.650;2023-04-15T05:27:35;100120.06;;;12.46;100.00
18918;BME280;9591;52.742;13.650;2023-04-15T05:30:22;100118.69;;;12.73;100.00
18918;BME280;9591;52.742;13.650;2023-04-15T05:33:09;100121.50;;;12.88;100.00
18918;BME280;9591;52.742;13.650;2023-04-15T05:35:55;100128.97;;;12.45;100.00
18918;BME280;9591;52.742;13.650;2023-04-15T05:38:42;100120.25;;;12.77;100.00
18918;BME280;9591;52.742;13.650;2023-04-15T05:41:30;100125.41;;;12.80;100.00
18918;BME280;9591;52.742;13.650;2023-04-15T05:44:17;100120.66;;;12.87;100.00
18918;BME280;9591;52.742;13.650;2023-04-15T05:47:04;100121.81;;;12.64;100.00
18918;BME280;9591;52.742;13.650;2023-04-15T05:49:52;100123.16;;;12.90;100.00
18918;BME280;9591;52.742;13.650;2023-04-15T05:52:39;100125.34;;;12.99;100.00
18918;BME280;9591;52.742;13.650;2023-04-15T05:55:26;100127.88;;;13.01;100.00
18918;BME280;9591;52.742;13.650;2023-04-15T05:58:14;100127.53;;;12.91;100.00
18918;BME280;9591;52.742;13.650;2023-04-15T06:01:01;100131.41;;;13.01;100.00
18918;BME280;9591;52.742;13.650;2023-04-15T06:03:48;100133.25;;;12.84;100.00
18918;BME280;9591;52.742;13.650;2023-04-15T06:06:36;100145.25;;;12.73;100.00
18918;BME280;9591;52.742;13.650;2023-04-15T06:09:23;100134.50;;;12.94;100.00
18918;BME280;9591;52.742;13.650;2023-04-15T06:12:09;100130.22;;;13.07;100.00
18918;BME280;9591;52.742;13.650;2023-04-15T06:14:58;100133.16;;;13.20;100.00
18918;BME280;9591;52.742;13.650;2023-04-15T06:17:44;100142.53;;;13.27;100.00
18918;BME280;9591;52.742;13.650;2023-04-15T06:20:31;100132.66;;;13.29;100.00
18918;BME280;9591;52.742;13.650;2023-04-15T06:23:18;100129.59;;;13.36;100.00
18918;BME280;9591;52.742;13.650;2023-04-15T06:26:05;100131.50;;;13.00;100.00
18918;BME280;9591;52.742;13.650;2023-04-15T06:28:51;100138.34;;;13.38;100.00
18918;BME280;9591;52.742;13.650;2023-04-15T06:31:40;100145.75;;;13.16;100.00
18918;BME280;9591;52.742;13.650;2023-04-15T06:34:26;100143.97;;;13.15;100.00
18918;BME280;9591;52.742;13.650;2023-04-15T06:37:13;100147.13;;;13.06;100.00
18918;BME280;9591;52.742;13.650;2023-04-15T06:40:01;100145.81;;;13.32;100.00
18918;BME280;9591;52.742;13.650;2023-04-15T06:42:49;100145.50;;;12.86;100.00
18918;BME280;9591;52.742;13.650;2023-04-15T06:45:36;100151.09;;;13.14;100.00
18918;BME280;9591;52.742;13.650;2023-04-15T06:48:24;100158.31;;;13.30;100.00
18918;BME280;9591;52.742;13.650;2023-04-15T06:51:11;100157.06;;;13.37;100.00
18918;BME280;9591;52.742;13.650;2023-04-15T06:53:58;100156.41;;;13.14;100.00
18918;BME280;9591;52.742;13.650;2023-04-15T06:56:45;100160.34;;;13.42;100.00
18918;BME280;9591;52.742;13.650;2023-04-15T06:59:32;100167.22;;;12.77;100.00
18918;BME280;9591;52.742;13.650;2023-04-15T07:02:19;100089.84;;;12.66;100.00
18918;BME280;9591;52.742;13.650;2023-04-15T07:05:07;100176.78;;;12.98;100.00
18918;BME280;9591;52.742;13.650;2023-04-15T07:07:54;100168.47;;;13.04;100.00
18918;BME280;9591;52.742;13.650;2023-04-15T07:10:41;100184.25;;;13.07;100.00
18918;BME280;9591;52.742;13.650;2023-04-15T07:13:30;100183.16;;;13.11;100.00
18918;BME280;9591;52.742;13.650;2023-04-15T07:16:17;100184.38;;;13.23;100.00
18918;BME280;9591;52.742;13.650;2023-04-15T07:19:04;100179.81;;;13.42;100.00
18918;BME280;9591;52.742;13.650;2023-04-15T07:21:52;100183.72;;;13.53;100.00
18918;BME280;9591;52.742;13.650;2023-04-15T07:24:38;100185.09;;;13.60;100.00
18918;BME280;9591;52.742;13.650;2023-04-15T07:27:26;100187.81;;;13.25;100.00
18918;BME280;9591;52.742;13.650;2023-04-15T07:30:15;100183.91;;;13.65;100.00
18918;BME280;9591;52.742;13.650;2023-04-15T07:33:02;100186.00;;;13.76;100.00
18918;BME280;9591;52.742;13.650;2023-04-15T07:35:49;100189.13;;;13.84;100.00
18918;BME280;9591;52.742;13.650;2023-04-15T07:38:37;100191.84;;;13.98;100.00
18918;BME280;9591;52.742;13.650;2023-04-15T07:41:24;100186.88;;;13.76;100.00
18918;BME280;9591;52.742;13.650;2023-04-15T07:44:10;100185.13;;;13.42;100.00
18918;BME280;9591;52.742;13.650;2023-04-15T07:46:57;100197.03;;;13.86;100.00
18918;BME280;9591;52.742;13.650;2023-04-15T07:49:44;100196.41;;;13.96;100.00
18918;BME280;9591;52.742;13.650;2023-04-15T07:52:31;100195.78;;;13.91;100.00
18918;BME280;9591;52.742;13.650;2023-04-15T07:55:24;100202.16;;;14.04;100.00
18918;BME280;9591;52.742;13.650;2023-04-15T07:58:12;100206.44;;;13.91;100.00
18918;BME280;9591;52.742;13.650;2023-04-15T08:00:59;100197.91;;;14.18;100.00
18918;BME280;9591;52.742;13.650;2023-04-15T08:03:46;100204.13;;;14.01;100.00
18918;BME280;9591;52.742;13.650;2023-04-15T08:06:32;100203.38;;;14.15;100.00
18918;BME280;9591;52.742;13.650;2023-04-15T08:09:19;100202.38;;;14.33;100.00
18918;BME280;9591;52.742;13.650;2023-04-15T08:12:08;100215.78;;;14.31;100.00
18918;BME280;9591;52.742;13.650;2023-04-15T08:14:57;100213.00;;;14.17;100.00
18918;BME280;9591;52.742;13.650;2023-04-15T08:17:44;100212.16;;;14.32;100.00
18918;BME280;9591;52.742;13.650;2023-04-15T08:20:32;100214.19;;;14.11;100.00
18918;BME280;9591;52.742;13.650;2023-04-15T08:23:19;100212.88;;;13.87;100.00
18918;BME280;9591;52.742;13.650;2023-04-15T08:26:05;100215.38;;;13.90;100.00
18918;BME280;9591;52.742;13.650;2023-04-15T08:28:54;100209.72;;;13.81;100.00
18918;BME280;9591;52.742;13.650;2023-04-15T08:31:41;100219.88;;;14.21;100.00
18918;BME280;9591;52.742;13.650;2023-04-15T08:34:29;100214.13;;;14.13;100.00
18918;BME280;9591;52.742;13.650;2023-04-15T08:37:16;100210.81;;;13.92;100.00
18918;BME280;9591;52.742;13.650;2023-04-15T08:40:04;100217.94;;;13.92;100.00
18918;BME280;9591;52.742;13.650;2023-04-15T08:42:53;100223.63;;;14.01;100.00
18918;BME280;9591;52.742;13.650;2023-04-15T08:45:44;100222.47;;;14.38;100.00
18918;BME280;9591;52.742;13.650;2023-04-15T08:48:32;100232.78;;;14.29;100.00
18918;BME280;9591;52.742;13.650;2023-04-15T08:51:20;100227.56;;;13.94;100.00
18918;BME280;9591;52.742;13.650;2023-04-15T08:54:09;100236.75;;;14.37;100.00
18918;BME280;9591;52.742;13.650;2023-04-15T08:57:04;100235.97;;;14.35;100.00
18918;BME280;9591;52.742;13.650;2023-04-15T08:59:54;100236.50;;;13.77;100.00
18918;BME280;9591;52.742;13.650;2023-04-15T09:02:41;100236.25;;;13.98;100.00
18918;BME280;9591;52.742;13.650;2023-04-15T09:05:31;100246.31;;;14.41;100.00
18918;BME280;9591;52.742;13.650;2023-04-15T09:08:17;100237.84;;;14.33;100.00
18918;BME280;9591;52.742;13.650;2023-04-15T09:11:04;100243.19;;;14.33;100.00
18918;BME280;9591;52.742;13.650;2023-04-15T09:13:52;100243.84;;;14.54;100.00
18918;BME280;9591;52.742;13.650;2023-04-15T09:16:55;100245.06;;;14.31;100.00
18918;BME280;9591;52.742;13.650;2023-04-15T09:19:42;100244.47;;;14.26;100.00
18918;BME280;9591;52.742;13.650;2023-04-15T09:22:31;100246.25;;;14.59;100.00
18918;BME280;9591;52.742;13.650;2023-04-15T09:25:28;100240.13;;;14.57;100.00
18918;BME280;9591;52.742;13.650;2023-04-15T09:28:23;100250.22;;;14.34;100.00
18918;BME280;9591;52.742;13.650;2023-04-15T09:31:12;100260.31;;;14.45;100.00
18918;BME280;9591;52.742;13.650;2023-04-15T09:33:59;100261.19;;;14.61;100.00
18918;BME280;9591;52.742;13.650;2023-04-15T09:36:56;100259.16;;;14.33;100.00
18918;BME280;9591;52.742;13.650;2023-04-15T09:39:49;100267.22;;;14.49;100.00
18918;BME280;9591;52.742;13.650;2023-04-15T09:42:36;100273.06;;;14.56;100.00
18918;BME280;9591;52.742;13.650;2023-04-15T09:45:23;100272.97;;;14.57;100.00
18918;BME280;9591;52.742;13.650;2023-04-15T09:48:17;100277.56;;;14.38;100.00
18918;BME280;9591;52.742;13.650;2023-04-15T09:51:05;100277.34;;;14.42;100.00
18918;BME280;9591;52.742;13.650;2023-04-15T09:53:53;100277.81;;;14.33;100.00
18918;BME280;9591;52.742;13.650;2023-04-15T09:56:41;100276.34;;;14.28;100.00
18918;BME280;9591;52.742;13.650;2023-04-15T09:59:27;100277.53;;;14.55;100.00
18918;BME280;9591;52.742;13.650;2023-04-15T10:02:14;100288.19;;;14.55;100.00
18918;BME280;9591;52.742;13.650;2023-04-15T10:05:03;100282.44;;;14.30;100.00
18918;BME280;9591;52.742;13.650;2023-04-15T10:07:50;100282.31;;;14.80;100.00
18918;BME280;9591;52.742;13.650;2023-04-15T10:10:36;100280.97;;;14.73;100.00
18918;BME280;9591;52.742;13.650;2023-04-15T10:13:25;100287.91;;;14.91;100.00
18918;BME280;9591;52.742;13.650;2023-04-15T10:16:14;100256.22;;;14.71;100.00
18918;BME280;9591;52.742;13.650;2023-04-15T10:19:01;100294.28;;;14.57;100.00
18918;BME280;9591;52.742;13.650;2023-04-15T10:21:51;100289.91;;;14.56;100.00
18918;BME280;9591;52.742;13.650;2023-04-15T10:24:38;100293.31;;;14.74;100.00
18918;BME280;9591;52.742;13.650;2023-04-15T10:27:26;100290.84;;;14.55;100.00
18918;BME280;9591;52.742;13.650;2023-04-15T10:30:14;100289.66;;;14.61;100.00
18918;BME280;9591;52.742;13.650;2023-04-15T10:33:02;100288.38;;;14.68;100.00
18918;BME280;9591;52.742;13.650;2023-04-15T10:35:50;100289.09;;;14.86;100.00
18918;BME280;9591;52.742;13.650;2023-04-15T10:38:39;100289.38;;;14.65;100.00
18918;BME280;9591;52.742;13.650;2023-04-15T10:41:27;100297.03;;;14.56;100.00
18918;BME280;9591;52.742;13.650;2023-04-15T10:44:15;100295.75;;;14.47;100.00
18918;BME280;9591;52.742;13.650;2023-04-15T10:47:07;100296.34;;;14.68;100.00
18918;BME280;9591;52.742;13.650;2023-04-15T10:49:58;100300.44;;;14.73;100.00
18918;BME280;9591;52.742;13.650;2023-04-15T10:52:44;100290.59;;;14.60;100.00
18918;BME280;9591;52.742;13.650;2023-04-15T10:55:33;100301.25;;;14.60;100.00
18918;BME280;9591;52.742;13.650;2023-04-15T10:58:22;100294.88;;;14.78;100.00
18918;BME280;9591;52.742;13.650;2023-04-15T11:01:09;100295.88;;;15.07;100.00
18918;BME280;9591;52.742;13.650;2023-04-15T11:03:55;100299.84;;;14.84;100.00
18918;BME280;9591;52.742;13.650;2023-04-15T11:06:43;100307.00;;;14.52;100.00
18918;BME280;9591;52.742;13.650;2023-04-15T11:09:30;100310.25;;;14.41;100.00
18918;BME280;9591;52.742;13.650;2023-04-15T11:12:19;100307.94;;;14.83;100.00
18918;BME280;9591;52.742;13.650;2023-04-15T11:15:28;100308.63;;;14.86;100.00
18918;BME280;9591;52.742;13.650;2023-04-15T11:18:16;100316.72;;;14.85;100.00
18918;BME280;9591;52.742;13.650;2023-04-15T11:21:05;100322.75;;;14.72;100.00
18918;BME280;9591;52.742;13.650;2023-04-15T11:23:52;100325.91;;;14.79;100.00
18918;BME280;9591;52.742;13.650;2023-04-15T11:26:39;100325.41;;;14.72;100.00
18918;BME280;9591;52.742;13.650;2023-04-15T11:29:29;100333.75;;;14.66;100.00
18918;BME280;9591;52.742;13.650;2023-04-15T11:32:17;100340.84;;;14.17;100.00
18918;BME280;9591;52.742;13.650;2023-04-15T11:35:04;100332.91;;;14.66;100.00
18918;BME280;9591;52.742;13.650;2023-04-15T11:37:50;100340.34;;;14.75;100.00
18918;BME280;9591;52.742;13.650;2023-04-15T11:40:39;100340.53;;;14.88;100.00
18918;BME280;9591;52.742;13.650;2023-04-15T11:43:31;100339.31;;;14.77;100.00
18918;BME280;9591;52.742;13.650;2023-04-15T11:46:28;100347.75;;;14.86;100.00
18918;BME280;9591;52.742;13.650;2023-04-15T11:49:25;100362.63;;;14.58;100.00
18918;BME280;9591;52.742;13.650;2023-04-15T11:52:12;100359.88;;;14.60;100.00
18918;BME280;9591;52.742;13.650;2023-04-15T11:55:02;100356.31;;;14.43;100.00
18918;BME280;9591;52.742;13.650;2023-04-15T11:57:49;100369.78;;;14.40;100.00
18918;BME280;9591;52.742;13.650;2023-04-15T12:00:36;100336.81;;;14.26;100.00
18918;BME280;9591;52.742;13.650;2023-04-15T12:03:26;100371.19;;;14.48;100.00
18918;BME280;9591;52.742;13.650;2023-04-15T12:06:15;100360.50;;;14.65;100.00
18918;BME280;9591;52.742;13.650;2023-04-15T12:09:07;100345.88;;;13.89;100.00
18918;BME280;9591;52.742;13.650;2023-04-15T12:11:56;100370.97;;;14.35;100.00
18918;BME280;9591;52.742;13.650;2023-04-15T12:14:43;100369.31;;;14.32;100.00
18918;BME280;9591;52.742;13.650;2023-04-15T12:17:30;100373.16;;;14.27;100.00
18918;BME280;9591;52.742;13.650;2023-04-15T12:20:43;100374.66;;;14.50;100.00
18918;BME280;9591;52.742;13.650;2023-04-15T12:23:36;100382.88;;;14.45;100.00
18918;BME280;9591;52.742;13.650;2023-04-15T12:26:27;100378.69;;;14.57;100.00
18918;BME280;9591;52.742;13.650;2023-04-15T12:29:15;100378.88;;;14.36;100.00
18918;BME280;9591;52.742;13.650;2023-04-15T12:32:06;100374.97;;;14.43;100.00
18918;BME280;9591;52.742;13.650;2023-04-15T12:34:54;100388.09;;;14.80;100.00
18918;BME280;9591;52.742;13.650;2023-04-15T12:37:42;100381.56;;;15.01;100.00
18918;BME280;9591;52.742;13.650;2023-04-15T12:40:28;100392.06;;;15.04;100.00
18918;BME280;9591;52.742;13.650;2023-04-15T12:43:15;100386.81;;;15.02;100.00
18918;BME280;9591;52.742;13.650;2023-04-15T12:46:02;100391.69;;;14.79;100.00
18918;BME280;9591;52.742;13.650;2023-04-15T12:48:50;100394.44;;;14.77;100.00
18918;BME280;9591;52.742;13.650;2023-04-15T12:51:37;100397.03;;;14.94;100.00
18918;BME280;9591;52.742;13.650;2023-04-15T12:54:26;100398.00;;;15.09;100.00
18918;BME280;9591;52.742;13.650;2023-04-15T12:57:13;100409.00;;;14.87;100.00
18918;BME280;9591;52.742;13.650;2023-04-15T13:00:00;100410.97;;;14.84;100.00
18918;BME280;9591;52.742;13.650;2023-04-15T13:02:47;100417.00;;;14.71;100.00
18918;BME280;9591;52.742;13.650;2023-04-15T13:05:33;100420.59;;;14.86;100.00
18918;BME280;9591;52.742;13.650;2023-04-15T13:08:21;100420.53;;;14.72;100.00
18918;BME280;9591;52.742;13.650;2023-04-15T13:11:11;100415.25;;;14.20;100.00
18918;BME280;9591;52.742;13.650;2023-04-15T13:14:00;100417.13;;;14.18;100.00
18918;BME280;9591;52.742;13.650;2023-04-15T13:16:47;100424.56;;;14.46;100.00
18918;BME280;9591;52.742;13.650;2023-04-15T13:19:34;100427.59;;;14.38;100.00
18918;BME280;9591;52.742;13.650;2023-04-15T13:22:21;100430.69;;;14.48;100.00
18918;BME280;9591;52.742;13.650;2023-04-15T13:25:08;100425.81;;;14.56;100.00
18918;BME280;9591;52.742;13.650;2023-04-15T13:27:57;100429.69;;;14.66;100.00
18918;BME280;9591;52.742;13.650;2023-04-15T13:30:45;100428.50;;;14.72;100.00
18918;BME280;9591;52.742;13.650;2023-04-15T13:33:33;100430.13;;;14.59;100.00
18918;BME280;9591;52.742;13.650;2023-04-15T13:36:19;100434.50;;;14.75;100.00
18918;BME280;9591;52.742;13.650;2023-04-15T13:39:06;100443.28;;;14.77;100.00
18918;BME280;9591;52.742;13.650;2023-04-15T13:41:53;100435.59;;;14.56;100.00
18918;BME280;9591;52.742;13.650;2023-04-15T13:44:41;100438.28;;;14.56;100.00
18918;BME280;9591;52.742;13.650;2023-04-15T13:47:28;100442.69;;;14.72;100.00
18918;BME280;9591;52.742;13.650;2023-04-15T13:50:15;100442.25;;;14.80;100.00
18918;BME280;9591;52.742;13.650;2023-04-15T13:53:02;100448.78;;;14.74;100.00
18918;BME280;9591;52.742;13.650;2023-04-15T13:55:49;100447.06;;;14.73;100.00
18918;BME280;9591;52.742;13.650;2023-04-15T13:58:36;100461.06;;;14.61;100.00
18918;BME280;9591;52.742;13.650;2023-04-15T14:01:25;100456.75;;;14.59;100.00
18918;BME280;9591;52.742;13.650;2023-04-15T14:04:12;100459.03;;;14.66;100.00
18918;BME280;9591;52.742;13.650;2023-04-15T14:06:59;100458.66;;;14.57;100.00
18918;BME280;9591;52.742;13.650;2023-04-15T14:09:48;100457.78;;;14.04;100.00
18918;BME280;9591;52.742;13.650;2023-04-15T14:12:35;100463.25;;;14.36;100.00
18918;BME280;9591;52.742;13.650;2023-04-15T14:15:22;100469.88;;;14.46;100.00
18918;BME280;9591;52.742;13.650;2023-04-15T14:18:10;100474.50;;;14.42;100.00
18918;BME280;9591;52.742;13.650;2023-04-15T14:20:57;100473.91;;;14.36;100.00
18918;BME280;9591;52.742;13.650;2023-04-15T14:23:44;100478.84;;;14.09;100.00
18918;BME280;9591;52.742;13.650;2023-04-15T14:26:31;100484.97;;;14.11;100.00
18918;BME280;9591;52.742;13.650;2023-04-15T14:29:18;100483.13;;;13.94;100.00
18918;BME280;9591;52.742;13.650;2023-04-15T14:32:05;100485.81;;;14.11;100.00
18918;BME280;9591;52.742;13.650;2023-04-15T14:34:57;100493.03;;;14.09;100.00
18918;BME280;9591;52.742;13.650;2023-04-15T14:37:44;100494.28;;;14.20;100.00